createdAt,value
2023-05-09T00:02:34.863Z,12.63
2023-05-09T00:05:19.658Z,12.73
2023-05-09T00:08:02.795Z,12.74
2023-05-09T00:10:47.992Z,12.78
2023-05-09T00:13:31.241Z,12.75
2023-05-09T00:16:14.569Z,12.79
2023-05-09T00:18:58.102Z,12.85
2023-05-09T00:21:41.303Z,12.73
2023-05-09T00:24:24.528Z,12.79
2023-05-09T00:27:09.329Z,12.79
2023-05-09T00:29:52.592Z,12.77
2023-05-09T00:32:38.278Z,12.74
2023-05-09T00:35:21.336Z,12.63
2023-05-09T00:38:05.873Z,12.65
2023-05-09T00:40:48.943Z,12.70
2023-05-09T00:43:33.637Z,12.76
2023-05-09T00:46:17.198Z,12.73
2023-05-09T00:49:00.991Z,12.66
2023-05-09T00:51:44.310Z,12.63
2023-05-09T00:54:27.649Z,12.63
2023-05-09T00:57:12.435Z,12.61
2023-05-09T00:59:57.170Z,12.53
2023-05-09T01:02:41.090Z,12.61
2023-05-09T01:05:27.274Z,12.65
2023-05-09T01:08:19.443Z,12.70
2023-05-09T01:11:10.786Z,12.71
2023-05-09T01:14:04.531Z,12.71
2023-05-09T01:16:57.179Z,12.69
2023-05-09T01:20:11.198Z,12.68
2023-05-09T01:23:02.600Z,12.61
2023-05-09T01:25:59.360Z,12.64
2023-05-09T01:29:06.465Z,12.59
2023-05-09T01:31:52.260Z,12.67
2023-05-09T01:34:36.726Z,12.73
2023-05-09T01:37:23.556Z,12.77
2023-05-09T01:40:11.887Z,12.78
2023-05-09T01:43:03.758Z,12.82
2023-05-09T01:45:47.869Z,12.83
2023-05-09T01:48:33.104Z,12.80
2023-05-09T01:51:19.575Z,12.83
2023-05-09T01:54:03.255Z,12.86
2023-05-09T01:56:47.473Z,12.94
2023-05-09T01:59:40.106Z,12.86
2023-05-09T02:02:31.343Z,12.66
2023-05-09T02:05:21.925Z,12.71
2023-05-09T02:08:05.302Z,12.64
2023-05-09T02:10:49.236Z,12.61
2023-05-09T02:13:33.197Z,12.50
2023-05-09T02:16:17.425Z,12.54
2023-05-09T02:19:00.693Z,12.39
2023-05-09T02:21:45.552Z,12.37
2023-05-09T02:24:34.533Z,12.30
2023-05-09T02:27:20.956Z,12.24
2023-05-09T02:30:09.090Z,12.12
2023-05-09T02:32:55.051Z,12.09
2023-05-09T02:35:38.579Z,12.07
2023-05-09T02:38:23.713Z,12.05
2023-05-09T02:41:08.162Z,11.95
2023-05-09T02:43:51.387Z,11.94
2023-05-09T02:46:35.084Z,11.96
2023-05-09T02:49:31.490Z,11.79
2023-05-09T02:52:15.584Z,11.77
2023-05-09T02:55:00.155Z,11.61
2023-05-09T02:57:44.133Z,11.63
2023-05-09T03:00:27.299Z,11.64
2023-05-09T03:03:11.024Z,11.71
2023-05-09T03:05:54.292Z,11.78
2023-05-09T03:08:37.400Z,11.81
2023-05-09T03:11:39.135Z,11.68
2023-05-09T03:14:22.340Z,11.84
2023-05-09T03:17:05.506Z,11.87
2023-05-09T03:19:50.497Z,11.79
2023-05-09T03:22:33.865Z,11.73
2023-05-09T03:25:17.340Z,11.67
2023-05-09T03:28:02.678Z,11.64
2023-05-09T03:30:46.071Z,11.65
2023-05-09T03:33:29.388Z,11.77
2023-05-09T03:36:13.036Z,11.87
2023-05-09T03:38:57.982Z,11.87
2023-05-09T03:41:41.935Z,11.93
2023-05-09T03:44:28.113Z,11.93
2023-05-09T03:47:11.345Z,11.89
2023-05-09T03:49:54.999Z,11.94
2023-05-09T03:52:38.508Z,12.06
2023-05-09T03:55:24.260Z,12.23
2023-05-09T03:58:08.756Z,12.28
2023-05-09T04:00:53.839Z,12.42
2023-05-09T04:03:39.381Z,12.43
2023-05-09T04:06:22.958Z,12.52
2023-05-09T04:09:09.339Z,12.64
2023-05-09T04:11:52.769Z,12.52
2023-05-09T04:14:35.993Z,12.53
2023-05-09T04:17:20.643Z,12.44
2023-05-09T04:20:05.147Z,12.61
2023-05-09T04:22:49.026Z,12.75
2023-05-09T04:25:32.241Z,13.00
2023-05-09T04:28:15.766Z,13.15
2023-05-09T04:30:59.297Z,13.17
2023-05-09T04:33:44.004Z,13.38
2023-05-09T04:36:27.690Z,13.53
2023-05-09T04:39:10.895Z,13.75
2023-05-09T04:41:54.081Z,13.79
2023-05-09T04:44:37.552Z,13.62
2023-05-09T04:47:20.688Z,13.70
2023-05-09T04:50:05.818Z,13.34
2023-05-09T04:52:48.930Z,13.37
2023-05-09T04:55:33.338Z,13.33
2023-05-09T04:58:17.420Z,13.56
2023-05-09T05:01:00.602Z,13.83
2023-05-09T05:03:44.043Z,13.99
2023-05-09T05:06:28.682Z,13.86
2023-05-09T05:09:12.137Z,14.08
2023-05-09T05:12:01.838Z,13.99
2023-05-09T05:14:46.242Z,14.04
2023-05-09T05:17:30.468Z,14.08
2023-05-09T05:20:14.215Z,14.10
2023-05-09T05:23:01.322Z,14.16
2023-05-09T05:25:44.456Z,14.28
2023-05-09T05:28:27.638Z,14.42
2023-05-09T05:31:11.029Z,14.35
2023-05-09T05:33:54.682Z,14.24
2023-05-09T05:36:37.851Z,14.25
2023-05-09T05:39:22.842Z,14.15
2023-05-09T05:42:06.318Z,14.30
2023-05-09T05:44:52.566Z,14.33
2023-05-09T05:47:36.857Z,14.46
2023-05-09T05:50:21.129Z,14.34
2023-05-09T05:53:04.391Z,14.31
2023-05-09T05:55:49.348Z,14.31
2023-05-09T05:58:33.081Z,14.22
2023-05-09T06:01:16.536Z,14.14
2023-05-09T06:03:59.816Z,14.09
2023-05-09T06:06:43.702Z,14.02
2023-05-09T06:09:26.933Z,14.11
2023-05-09T06:12:16.622Z,14.15
2023-05-09T06:15:00.154Z,14.27
2023-05-09T06:17:43.585Z,14.29
2023-05-09T06:20:27.503Z,14.61
2023-05-09T06:23:11.032Z,14.98
2023-05-09T06:25:54.392Z,15.15
2023-05-09T06:28:38.959Z,15.23
2023-05-09T06:31:23.518Z,14.96
2023-05-09T06:34:08.595Z,15.01
2023-05-09T06:36:52.639Z,14.89
2023-05-09T06:39:35.936Z,14.85
2023-05-09T06:42:20.483Z,14.82
2023-05-09T06:45:05.773Z,14.72
2023-05-09T06:47:48.943Z,14.82
2023-05-09T06:50:33.112Z,15.12
2023-05-09T06:53:17.250Z,15.35
2023-05-09T06:56:00.585Z,15.67
2023-05-09T06:58:44.136Z,15.65
2023-05-09T07:01:29.348Z,15.90
2023-05-09T07:04:15.847Z,16.05
2023-05-09T07:07:09.872Z,16.15
2023-05-09T07:10:07.252Z,16.17
2023-05-09T07:12:54.193Z,16.17
2023-05-09T07:15:42.243Z,16.24
2023-05-09T07:18:27.706Z,16.43
2023-05-09T07:21:11.698Z,16.66
2023-05-09T07:23:54.969Z,16.71
2023-05-09T07:26:38.143Z,16.94
2023-05-09T07:29:21.225Z,17.22
2023-05-09T07:32:04.584Z,17.54
2023-05-09T07:34:49.373Z,17.67
2023-05-09T07:37:35.008Z,17.50
2023-05-09T07:40:23.883Z,17.39
2023-05-09T07:43:07.153Z,17.31
2023-05-09T07:45:50.760Z,16.91
2023-05-09T07:48:33.879Z,17.73
2023-05-09T07:51:21.742Z,18.06
2023-05-09T07:54:04.937Z,17.74
2023-05-09T07:56:52.226Z,17.36
2023-05-09T07:59:35.329Z,17.44
2023-05-09T08:02:19.514Z,17.48
2023-05-09T08:05:02.609Z,17.56
2023-05-09T08:07:47.479Z,18.01
2023-05-09T08:10:32.716Z,18.34
2023-05-09T08:13:15.977Z,18.89
2023-05-09T08:15:59.269Z,19.75
2023-05-09T08:18:42.438Z,19.72
2023-05-09T08:21:26.633Z,20.09
2023-05-09T08:24:11.212Z,20.82
2023-05-09T08:26:56.777Z,19.80
2023-05-09T08:29:40.201Z,19.33
2023-05-09T08:32:23.360Z,18.99
2023-05-09T08:35:08.956Z,19.34
2023-05-09T08:37:52.891Z,19.06
2023-05-09T08:40:38.946Z,19.17
2023-05-09T08:43:25.359Z,19.41
2023-05-09T08:46:10.681Z,19.45
2023-05-09T08:48:54.986Z,19.56
2023-05-09T08:51:40.529Z,20.50
2023-05-09T08:54:24.339Z,25.52
2023-05-09T08:57:09.768Z,29.79
2023-05-09T08:59:53.723Z,33.01
2023-05-09T09:02:37.255Z,31.38
2023-05-09T09:05:40.129Z,31.98
2023-05-09T09:08:24.492Z,27.82
2023-05-09T09:11:09.151Z,25.78
2023-05-09T09:13:55.522Z,23.80
2023-05-09T09:16:40.151Z,22.19
2023-05-09T09:19:28.902Z,21.17
2023-05-09T09:22:17.091Z,19.62
2023-05-09T09:25:00.628Z,18.84
2023-05-09T09:27:43.826Z,18.11
2023-05-09T09:30:29.500Z,18.14
2023-05-09T09:33:21.761Z,17.81
2023-05-09T09:36:07.628Z,17.80
2023-05-09T09:38:51.895Z,17.57
2023-05-09T09:41:36.378Z,18.36
2023-05-09T09:44:20.649Z,18.17
2023-05-09T09:47:05.253Z,17.73
2023-05-09T09:49:48.781Z,18.24
2023-05-09T09:52:32.071Z,17.84
2023-05-09T09:55:15.231Z,18.06
2023-05-09T09:58:00.234Z,18.40
2023-05-09T10:00:47.029Z,18.70
2023-05-09T10:03:39.272Z,21.29
2023-05-09T10:06:22.547Z,23.91
2023-05-09T10:09:05.929Z,24.98
2023-05-09T10:11:51.602Z,24.14
2023-05-09T10:14:36.596Z,22.54
2023-05-09T10:17:23.175Z,23.83
2023-05-09T10:20:10.226Z,23.07
2023-05-09T10:22:57.428Z,21.62
2023-05-09T10:25:44.181Z,19.81
2023-05-09T10:28:34.487Z,19.22
2023-05-09T10:31:24.044Z,18.68
2023-05-09T10:34:11.614Z,17.74
2023-05-09T10:36:57.655Z,16.93
2023-05-09T10:39:42.284Z,16.87
2023-05-09T10:42:26.425Z,17.14
2023-05-09T10:45:11.514Z,17.76
2023-05-09T10:47:57.783Z,17.96
2023-05-09T10:50:42.771Z,17.29
2023-05-09T10:53:42.190Z,16.65
2023-05-09T10:56:27.950Z,16.38
2023-05-09T10:59:37.446Z,15.82
2023-05-09T11:02:21.973Z,15.22
2023-05-09T11:05:15.619Z,15.20
2023-05-09T11:08:20.382Z,15.30
2023-05-09T11:11:09.454Z,15.89
2023-05-09T11:13:59.750Z,15.96
2023-05-09T11:16:58.576Z,16.22
2023-05-09T11:20:02.157Z,16.47
2023-05-09T11:22:47.620Z,16.18
2023-05-09T11:25:41.513Z,16.22
2023-05-09T11:28:33.619Z,16.59
2023-05-09T11:31:18.909Z,16.30
2023-05-09T11:34:05.055Z,15.92
2023-05-09T11:36:49.857Z,16.00
2023-05-09T11:39:33.362Z,15.54
2023-05-09T11:42:16.824Z,15.25
2023-05-09T11:45:05.290Z,15.12
2023-05-09T11:47:49.708Z,15.23
2023-05-09T11:50:33.604Z,15.33
2023-05-09T11:53:19.256Z,15.04
2023-05-09T11:56:05.140Z,15.11
2023-05-09T11:58:51.538Z,15.23
2023-05-09T12:01:37.447Z,15.10
2023-05-09T12:04:20.749Z,15.16
2023-05-09T12:07:04.022Z,15.07
2023-05-09T12:09:50.216Z,14.77
2023-05-09T12:12:35.349Z,14.84
2023-05-09T12:15:20.192Z,14.84
2023-05-09T12:18:06.473Z,14.84
2023-05-09T12:20:51.501Z,14.54
2023-05-09T12:23:36.805Z,14.50
2023-05-09T12:26:20.159Z,14.36
2023-05-09T12:29:03.609Z,14.02
2023-05-09T12:31:55.412Z,13.81
2023-05-09T12:34:40.233Z,13.53
2023-05-09T12:37:24.076Z,13.39
2023-05-09T12:40:12.593Z,13.01
2023-05-09T12:43:02.675Z,12.79
2023-05-09T12:45:45.995Z,12.70
2023-05-09T12:48:30.008Z,12.60
2023-05-09T12:51:21.034Z,12.48
2023-05-09T12:54:06.060Z,12.55
2023-05-09T12:56:50.217Z,12.41
2023-05-09T12:59:33.520Z,12.47
2023-05-09T13:02:16.713Z,12.54
2023-05-09T13:05:11.082Z,12.42
2023-05-09T13:08:01.309Z,12.42
2023-05-09T13:11:07.851Z,12.28
2023-05-09T13:13:58.067Z,12.34
2023-05-09T13:16:41.435Z,12.25
2023-05-09T13:19:24.700Z,12.24
2023-05-09T13:22:09.461Z,12.23
2023-05-09T13:24:55.312Z,12.25
2023-05-09T13:27:40.147Z,12.18
2023-05-09T13:30:23.395Z,12.13
2023-05-09T13:33:24.573Z,12.08
2023-05-09T13:36:08.940Z,12.02
2023-05-09T13:38:52.102Z,12.15
2023-05-09T13:41:38.118Z,12.33
2023-05-09T13:44:21.465Z,12.25
2023-05-09T13:47:05.011Z,12.10
2023-05-09T13:49:48.179Z,12.32
2023-05-09T13:52:31.337Z,12.36
2023-05-09T13:55:14.504Z,12.26
2023-05-09T13:58:01.647Z,12.29
2023-05-09T14:00:45.092Z,12.31
2023-05-09T14:03:28.699Z,12.23
2023-05-09T14:06:15.354Z,12.22
2023-05-09T14:08:59.022Z,12.13
2023-05-09T14:11:42.981Z,12.10
2023-05-09T14:14:27.921Z,12.00
2023-05-09T14:17:13.586Z,12.07
2023-05-09T14:19:56.829Z,12.00
2023-05-09T14:22:40.575Z,11.98
2023-05-09T14:25:24.078Z,12.07
2023-05-09T14:28:09.589Z,12.08
2023-05-09T14:30:57.615Z,12.09
2023-05-09T14:33:41.019Z,12.14
2023-05-09T14:36:24.561Z,12.11
2023-05-09T14:39:07.966Z,12.15
2023-05-09T14:41:52.428Z,12.20
2023-05-09T14:44:35.665Z,12.11
2023-05-09T14:47:20.429Z,12.09
2023-05-09T14:50:04.607Z,12.01
2023-05-09T14:52:47.955Z,11.95
2023-05-09T14:55:31.491Z,11.91
2023-05-09T14:58:16.194Z,11.99
2023-05-09T15:00:59.872Z,11.87
2023-05-09T15:03:46.896Z,11.86
2023-05-09T15:06:30.510Z,11.87
2023-05-09T15:09:14.172Z,12.01
2023-05-09T15:11:58.475Z,11.97
2023-05-09T15:14:41.840Z,11.94
2023-05-09T15:17:25.040Z,11.87
2023-05-09T15:20:10.863Z,11.98
2023-05-09T15:22:54.184Z,12.03
2023-05-09T15:25:38.378Z,12.00
2023-05-09T15:28:21.564Z,11.93
2023-05-09T15:31:04.962Z,11.71
2023-05-09T15:33:48.307Z,11.74
2023-05-09T15:36:33.914Z,11.78
2023-05-09T15:39:17.258Z,11.64
2023-05-09T15:42:00.529Z,11.58
2023-05-09T15:44:53.884Z,11.52
2023-05-09T15:47:37.534Z,11.50
2023-05-09T15:50:30.187Z,11.36
2023-05-09T15:53:15.698Z,11.20
2023-05-09T15:55:59.414Z,11.22
2023-05-09T15:58:42.708Z,11.10
2023-05-09T16:01:25.943Z,11.01
2023-05-09T16:04:09.359Z,10.93
2023-05-09T16:06:56.805Z,11.03
2023-05-09T16:09:43.597Z,10.95
2023-05-09T16:12:27.214Z,10.91
2023-05-09T16:15:12.764Z,10.84
2023-05-09T16:17:56.738Z,10.85
2023-05-09T16:20:41.462Z,10.86
2023-05-09T16:23:26.132Z,10.91
2023-05-09T16:26:15.088Z,10.91
2023-05-09T16:28:59.521Z,10.89
2023-05-09T16:31:45.048Z,10.96
2023-05-09T16:34:28.468Z,10.81
2023-05-09T16:37:12.060Z,10.77
2023-05-09T16:39:55.228Z,10.76
2023-05-09T16:42:42.789Z,10.67
2023-05-09T16:45:26.763Z,10.75
2023-05-09T16:48:10.269Z,10.66
2023-05-09T16:50:54.262Z,10.80
2023-05-09T16:53:37.790Z,10.70
2023-05-09T16:56:21.815Z,10.72
2023-05-09T16:59:06.415Z,10.69
2023-05-09T17:01:50.089Z,10.53
2023-05-09T17:04:34.754Z,10.49
2023-05-09T17:07:19.467Z,10.55
2023-05-09T17:10:02.665Z,10.47
2023-05-09T17:12:45.977Z,10.48
2023-05-09T17:15:30.652Z,10.43
2023-05-09T17:18:19.291Z,10.28
2023-05-09T17:21:10.694Z,10.33
2023-05-09T17:23:56.739Z,10.31
2023-05-09T17:26:41.727Z,10.23
2023-05-09T17:29:27.799Z,10.19
2023-05-09T17:32:13.403Z,10.11
2023-05-09T17:35:06.453Z,10.23
2023-05-09T17:37:56.394Z,10.09
2023-05-09T17:40:43.430Z,9.90
2023-05-09T17:43:32.082Z,10.11
2023-05-09T17:49:17.600Z,9.94
2023-05-09T17:52:04.249Z,10.01
2023-05-09T17:54:48.250Z,9.88
2023-05-09T17:57:36.153Z,9.83
2023-05-09T18:00:24.745Z,9.93
2023-05-09T18:03:09.317Z,9.98
2023-05-09T18:06:03.719Z,9.91
2023-05-09T18:08:48.617Z,9.79
2023-05-09T18:11:59.695Z,9.84
2023-05-09T18:14:43.375Z,9.77
2023-05-09T18:17:26.821Z,9.90
2023-05-09T18:20:11.320Z,9.90
2023-05-09T18:22:57.738Z,9.72
2023-05-09T18:25:42.443Z,9.64
2023-05-09T18:28:27.908Z,9.75
2023-05-09T18:31:11.939Z,9.72
2023-05-09T18:33:57.951Z,9.65
2023-05-09T18:36:41.208Z,9.57
2023-05-09T18:39:26.039Z,9.47
2023-05-09T18:42:09.397Z,9.54
2023-05-09T18:44:54.239Z,9.53
2023-05-09T18:47:38.294Z,9.58
2023-05-09T18:50:22.054Z,9.59
2023-05-09T18:53:05.498Z,9.54
2023-05-09T18:55:50.672Z,9.45
2023-05-09T18:58:36.428Z,9.52
2023-05-09T19:01:20.167Z,9.46
2023-05-09T19:04:04.546Z,9.46
2023-05-09T19:06:48.486Z,9.44
2023-05-09T19:09:34.258Z,9.34
2023-05-09T19:12:18.976Z,9.34
2023-05-09T19:15:02.487Z,9.48
2023-05-09T19:17:46.021Z,9.43
2023-05-09T19:20:32.129Z,9.47
2023-05-09T19:23:15.781Z,9.43
2023-05-09T19:25:59.262Z,9.34
2023-05-09T19:28:44.672Z,9.41
2023-05-09T19:31:28.294Z,9.35
2023-05-09T19:34:12.550Z,9.37
2023-05-09T19:36:56.878Z,9.33
2023-05-09T19:39:40.409Z,9.46
2023-05-09T19:42:23.636Z,9.50
2023-05-09T19:45:10.768Z,9.41
2023-05-09T19:47:57.596Z,9.44
2023-05-09T19:50:43.416Z,9.35
2023-05-09T19:53:26.954Z,9.31
2023-05-09T19:56:10.376Z,9.46
2023-05-09T19:58:53.863Z,9.54
2023-05-09T20:01:41.106Z,9.52
2023-05-09T20:04:24.646Z,9.45
2023-05-09T20:07:09.897Z,9.52
2023-05-09T20:09:53.221Z,9.54
2023-05-09T20:12:36.363Z,9.59
2023-05-09T20:15:19.587Z,9.67
2023-05-09T20:18:07.153Z,9.62
2023-05-09T20:20:50.422Z,9.63
2023-05-09T20:23:34.711Z,9.57
2023-05-09T20:26:17.956Z,9.57
2023-05-09T20:29:01.638Z,9.50
2023-05-09T20:31:44.906Z,9.60
2023-05-09T20:34:34.050Z,9.62
2023-05-09T20:37:18.685Z,9.51
2023-05-09T20:40:06.528Z,9.57
2023-05-09T20:42:50.465Z,9.57
2023-05-09T20:45:37.460Z,9.55
2023-05-09T20:48:22.946Z,9.48
2023-05-09T20:51:07.809Z,9.48
2023-05-09T20:53:51.251Z,9.45
2023-05-09T20:56:35.779Z,9.48
2023-05-09T20:59:26.483Z,9.51
2023-05-09T21:02:10.646Z,9.50
2023-05-09T21:04:53.873Z,9.41
2023-05-09T21:07:38.830Z,9.40
2023-05-09T21:10:22.650Z,9.25
2023-05-09T21:13:05.884Z,9.26
2023-05-09T21:15:50.971Z,9.15
2023-05-09T21:18:35.128Z,9.21
2023-05-09T21:21:18.354Z,9.30
2023-05-09T21:24:11.331Z,9.34
2023-05-09T21:26:54.539Z,9.34
2023-05-09T21:29:37.690Z,9.27
2023-05-09T21:32:21.022Z,9.21
2023-05-09T21:35:04.488Z,9.14
2023-05-09T21:37:48.628Z,9.12
2023-05-09T21:40:33.356Z,9.08
2023-05-09T21:43:18.262Z,9.11
2023-05-09T21:46:01.558Z,9.08
2023-05-09T21:48:45.304Z,9.13
2023-05-09T21:51:28.577Z,9.02
2023-05-09T21:54:12.049Z,9.02
2023-05-09T21:56:58.158Z,8.78
2023-05-09T21:59:41.428Z,8.76
2023-05-09T22:02:24.775Z,8.81
2023-05-09T22:05:08.883Z,8.80
2023-05-09T22:07:52.683Z,8.66
2023-05-09T22:10:37.824Z,8.79
2023-05-09T22:13:22.638Z,8.80
2023-05-09T22:16:07.279Z,8.77
2023-05-09T22:18:50.948Z,8.74
2023-05-09T22:21:34.158Z,8.75
2023-05-09T22:24:17.533Z,8.76
2023-05-09T22:27:00.753Z,8.66
2023-05-09T22:29:47.837Z,8.63
2023-05-09T22:32:31.105Z,8.68
2023-05-09T22:35:14.620Z,8.59
2023-05-09T22:37:58.051Z,8.59
2023-05-09T22:40:41.740Z,8.57
2023-05-09T22:43:28.713Z,8.48
2023-05-09T22:46:18.459Z,8.51
2023-05-09T22:49:01.687Z,8.54
2023-05-09T22:51:44.968Z,8.52
2023-05-09T22:54:28.163Z,8.52
2023-05-09T22:57:11.459Z,8.46
2023-05-09T22:59:54.735Z,8.44
2023-05-09T23:02:39.707Z,8.44
2023-05-09T23:05:22.917Z,8.52
2023-05-09T23:08:06.191Z,8.44
2023-05-09T23:10:49.478Z,8.52
2023-05-09T23:13:32.760Z,8.46
2023-05-09T23:16:16.350Z,8.49
2023-05-09T23:19:00.936Z,8.48
2023-05-09T23:21:44.060Z,8.45
2023-05-09T23:24:27.396Z,8.38
2023-05-09T23:27:11.397Z,8.47
2023-05-09T23:29:54.577Z,8.45
2023-05-09T23:32:38.047Z,8.43
2023-05-09T23:35:22.754Z,8.49
2023-05-09T23:38:05.907Z,8.52
2023-05-09T23:40:49.603Z,8.51
2023-05-09T23:43:33.578Z,8.53
2023-05-09T23:46:17.179Z,8.54
2023-05-09T23:49:00.377Z,8.57
2023-05-09T23:51:44.874Z,8.57
2023-05-09T23:54:28.801Z,8.62
2023-05-09T23:57:12.358Z,8.52
2023-05-09T23:59:55.503Z,8.53
